sensor_id;sensor_type;location;lat;lon;timestamp;pressure;altitude;pressure_sealevel;temperature;humidity
13734;BME280;43298;52.560;13.508;2022-08-30T00:00:18;100962.78;;;14.62;100.00
13734;BME280;43298;52.560;13.508;2022-08-30T00:03:04;100959.25;;;14.63;100.00
13734;BME280;43298;52.560;13.508;2022-08-30T00:05:32;100965.81;;;14.55;100.00
13734;BME280;43298;52.560;13.508;2022-08-30T00:07:58;100959.25;;;14.63;100.00
13734;BME280;43298;52.560;13.508;2022-08-30T00:10:25;100961.84;;;14.63;100.00
13734;BME280;43298;52.560;13.508;2022-08-30T00:12:51;100956.41;;;14.68;100.00
13734;BME280;43298;52.560;13.508;2022-08-30T00:15:18;100948.75;;;14.65;100.00
13734;BME280;43298;52.560;13.508;2022-08-30T00:17:44;100957.75;;;14.59;100.00
13734;BME280;43298;52.560;13.508;2022-08-30T00:20:18;100956.31;;;14.54;100.00
13734;BME280;43298;52.560;13.508;2022-08-30T00:22:46;100954.06;;;14.48;100.00
13734;BME280;43298;52.560;13.508;2022-08-30T00:25:13;100947.50;;;14.41;100.00
13734;BME280;43298;52.560;13.508;2022-08-30T00:27:39;100952.03;;;14.37;100.00
13734;BME280;43298;52.560;13.508;2022-08-30T00:30:06;100953.13;;;14.33;100.00
13734;BME280;43298;52.560;13.508;2022-08-30T00:32:32;100957.81;;;14.27;100.00
13734;BME280;43298;52.560;13.508;2022-08-30T00:34:58;100956.44;;;14.20;100.00
13734;BME280;43298;52.560;13.508;2022-08-30T00:37:24;100949.72;;;14.16;100.00
13734;BME280;43298;52.560;13.508;2022-08-30T00:39:50;100952.53;;;14.11;100.00
13734;BME280;43298;52.560;13.508;2022-08-30T00:42:18;100955.31;;;14.08;100.00
13734;BME280;43298;52.560;13.508;2022-08-30T00:44:44;100952.84;;;14.05;100.00
13734;BME280;43298;52.560;13.508;2022-08-30T00:47:10;100956.06;;;14.10;100.00
13734;BME280;43298;52.560;13.508;2022-08-30T00:49:40;100954.72;;;14.03;100.00
13734;BME280;43298;52.560;13.508;2022-08-30T00:52:07;100944.53;;;13.99;100.00
13734;BME280;43298;52.560;13.508;2022-08-30T00:54:35;100946.38;;;13.97;100.00
13734;BME280;43298;52.560;13.508;2022-08-30T00:57:02;100948.97;;;13.97;100.00
13734;BME280;43298;52.560;13.508;2022-08-30T00:59:29;100954.31;;;13.94;100.00
13734;BME280;43298;52.560;13.508;2022-08-30T01:01:56;100952.56;;;13.94;100.00
13734;BME280;43298;52.560;13.508;2022-08-30T01:04:24;100957.00;;;13.92;100.00
13734;BME280;43298;52.560;13.508;2022-08-30T01:06:51;100955.31;;;13.91;100.00
13734;BME280;43298;52.560;13.508;2022-08-30T01:09:17;100952.41;;;13.97;100.00
13734;BME280;43298;52.560;13.508;2022-08-30T01:11:47;100956.03;;;13.95;100.00
13734;BME280;43298;52.560;13.508;2022-08-30T01:14:14;100952.28;;;14.00;100.00
13734;BME280;43298;52.560;13.508;2022-08-30T01:16:42;100960.72;;;14.04;100.00
13734;BME280;43298;52.560;13.508;2022-08-30T01:19:46;100950.25;;;14.05;100.00
13734;BME280;43298;52.560;13.508;2022-08-30T01:24:57;100949.31;;;13.91;100.00
13734;BME280;43298;52.560;13.508;2022-08-30T01:27:24;100953.66;;;13.90;100.00
13734;BME280;43298;52.560;13.508;2022-08-30T01:29:52;100947.69;;;13.88;100.00
13734;BME280;43298;52.560;13.508;2022-08-30T01:32:26;100955.63;;;13.85;100.00
13734;BME280;43298;52.560;13.508;2022-08-30T01:34:55;100954.19;;;13.80;100.00
13734;BME280;43298;52.560;13.508;2022-08-30T01:37:26;100951.69;;;13.78;100.00
13734;BME280;43298;52.560;13.508;2022-08-30T01:39:53;100960.25;;;13.80;100.00
13734;BME280;43298;52.560;13.508;2022-08-30T01:42:19;100951.44;;;13.83;100.00
13734;BME280;43298;52.560;13.508;2022-08-30T01:44:46;100949.69;;;13.83;100.00
13734;BME280;43298;52.560;13.508;2022-08-30T01:47:14;100948.53;;;13.89;100.00
13734;BME280;43298;52.560;13.508;2022-08-30T01:49:40;100955.81;;;13.82;100.00
13734;BME280;43298;52.560;13.508;2022-08-30T01:52:07;100950.78;;;13.79;100.00
13734;BME280;43298;52.560;13.508;2022-08-30T01:54:36;100957.94;;;13.74;100.00
13734;BME280;43298;52.560;13.508;2022-08-30T01:57:04;100953.66;;;13.90;100.00
13734;BME280;43298;52.560;13.508;2022-08-30T01:59:30;100945.09;;;13.88;100.00
13734;BME280;43298;52.560;13.508;2022-08-30T02:01:56;100949.69;;;13.83;100.00
13734;BME280;43298;52.560;13.508;2022-08-30T02:04:22;100945.72;;;13.76;100.00
13734;BME280;43298;52.560;13.508;2022-08-30T02:06:48;100952.94;;;13.71;100.00
13734;BME280;43298;52.560;13.508;2022-08-30T02:09:13;100946.38;;;13.64;100.00
13734;BME280;43298;52.560;13.508;2022-08-30T02:11:39;100946.19;;;13.67;100.00
13734;BME280;43298;52.560;13.508;2022-08-30T02:14:06;100932.91;;;13.56;100.00
13734;BME280;43298;52.560;13.508;2022-08-30T02:16:32;100937.66;;;13.48;100.00
13734;BME280;43298;52.560;13.508;2022-08-30T02:18:58;100943.06;;;13.44;100.00
13734;BME280;43298;52.560;13.508;2022-08-30T02:21:25;100940.72;;;13.39;100.00
13734;BME280;43298;52.560;13.508;2022-08-30T02:23:52;100954.00;;;13.33;100.00
13734;BME280;43298;52.560;13.508;2022-08-30T02:26:20;100949.09;;;13.27;100.00
13734;BME280;43298;52.560;13.508;2022-08-30T02:28:47;100955.28;;;13.25;100.00
13734;BME280;43298;52.560;13.508;2022-08-30T02:31:13;100943.31;;;13.22;100.00
13734;BME280;43298;52.560;13.508;2022-08-30T02:33:39;100950.31;;;13.20;100.00
13734;BME280;43298;52.560;13.508;2022-08-30T02:36:06;100951.09;;;13.22;100.00
13734;BME280;43298;52.560;13.508;2022-08-30T02:38:33;100942.44;;;13.22;100.00
13734;BME280;43298;52.560;13.508;2022-08-30T02:40:59;100936.25;;;13.24;100.00
13734;BME280;43298;52.560;13.508;2022-08-30T02:43:26;100932.91;;;13.22;100.00
13734;BME280;43298;52.560;13.508;2022-08-30T02:45:52;100939.00;;;13.21;100.00
13734;BME280;43298;52.560;13.508;2022-08-30T02:48:19;100934.81;;;13.19;100.00
13734;BME280;43298;52.560;13.508;2022-08-30T02:50:48;100932.91;;;13.22;100.00
13734;BME280;43298;52.560;13.508;2022-08-30T02:53:15;100941.59;;;13.21;100.00
13734;BME280;43298;52.560;13.508;2022-08-30T02:55:42;100942.75;;;12.99;100.00
13734;BME280;43298;52.560;13.508;2022-08-30T02:58:08;100944.19;;;13.04;100.00
13734;BME280;43298;52.560;13.508;2022-08-30T03:00:35;100940.25;;;12.96;100.00
13734;BME280;43298;52.560;13.508;2022-08-30T03:03:01;100939.78;;;12.88;100.00
13734;BME280;43298;52.560;13.508;2022-08-30T03:05:30;100935.72;;;12.82;100.00
13734;BME280;43298;52.560;13.508;2022-08-30T03:07:56;100935.94;;;12.78;100.00
13734;BME280;43298;52.560;13.508;2022-08-30T03:10:22;100933.63;;;12.72;100.00
13734;BME280;43298;52.560;13.508;2022-08-30T03:12:48;100938.13;;;12.68;100.00
13734;BME280;43298;52.560;13.508;2022-08-30T03:15:14;100939.34;;;12.61;100.00
13734;BME280;43298;52.560;13.508;2022-08-30T03:17:41;100941.16;;;12.59;100.00
13734;BME280;43298;52.560;13.508;2022-08-30T03:20:09;100935.09;;;12.59;100.00
13734;BME280;43298;52.560;13.508;2022-08-30T03:22:35;100929.84;;;12.60;100.00
13734;BME280;43298;52.560;13.508;2022-08-30T03:25:02;100934.28;;;12.58;100.00
13734;BME280;43298;52.560;13.508;2022-08-30T03:27:28;100930.91;;;12.56;100.00
13734;BME280;43298;52.560;13.508;2022-08-30T03:29:55;100939.69;;;12.54;100.00
13734;BME280;43298;52.560;13.508;2022-08-30T03:32:22;100937.63;;;12.60;100.00
13734;BME280;43298;52.560;13.508;2022-08-30T03:34:48;100935.41;;;12.53;100.00
13734;BME280;43298;52.560;13.508;2022-08-30T03:37:15;100942.53;;;12.48;100.00
13734;BME280;43298;52.560;13.508;2022-08-30T03:39:40;100944.38;;;12.46;100.00
13734;BME280;43298;52.560;13.508;2022-08-30T03:42:06;100932.41;;;12.43;100.00
13734;BME280;43298;52.560;13.508;2022-08-30T03:44:32;100937.22;;;12.51;100.00
13734;BME280;43298;52.560;13.508;2022-08-30T03:46:58;100943.88;;;12.56;100.00
13734;BME280;43298;52.560;13.508;2022-08-30T03:49:24;100942.75;;;12.62;100.00
13734;BME280;43298;52.560;13.508;2022-08-30T03:51:50;100955.66;;;12.63;100.00
13734;BME280;43298;52.560;13.508;2022-08-30T03:54:16;100952.13;;;12.64;100.00
13734;BME280;43298;52.560;13.508;2022-08-30T03:56:42;100953.84;;;12.65;100.00
13734;BME280;43298;52.560;13.508;2022-08-30T03:59:08;100957.31;;;12.64;100.00
13734;BME280;43298;52.560;13.508;2022-08-30T04:01:34;100957.31;;;12.64;100.00
13734;BME280;43298;52.560;13.508;2022-08-30T04:04:00;100954.13;;;12.59;100.00
13734;BME280;43298;52.560;13.508;2022-08-30T04:06:26;100956.66;;;12.61;100.00
13734;BME280;43298;52.560;13.508;2022-08-30T04:08:52;100956.72;;;12.59;100.00
13734;BME280;43298;52.560;13.508;2022-08-30T04:11:19;100963.16;;;12.69;100.00
13734;BME280;43298;52.560;13.508;2022-08-30T04:13:45;100960.75;;;12.83;100.00
13734;BME280;43298;52.560;13.508;2022-08-30T04:16:14;100957.72;;;12.92;100.00
13734;BME280;43298;52.560;13.508;2022-08-30T04:18:40;100952.31;;;12.97;100.00
13734;BME280;43298;52.560;13.508;2022-08-30T04:21:05;100954.44;;;13.07;100.00
13734;BME280;43298;52.560;13.508;2022-08-30T04:23:31;100954.91;;;13.15;100.00
13734;BME280;43298;52.560;13.508;2022-08-30T04:25:58;100953.69;;;13.22;100.00
13734;BME280;43298;52.560;13.508;2022-08-30T04:28:23;100954.16;;;13.30;100.00
13734;BME280;43298;52.560;13.508;2022-08-30T04:30:49;100953.94;;;13.35;100.00
13734;BME280;43298;52.560;13.508;2022-08-30T04:33:15;100955.16;;;13.45;100.00
13734;BME280;43298;52.560;13.508;2022-08-30T04:35:44;100947.75;;;13.54;100.00
13734;BME280;43298;52.560;13.508;2022-08-30T04:38:15;100953.47;;;13.61;100.00
13734;BME280;43298;52.560;13.508;2022-08-30T04:40:43;100953.91;;;13.69;100.00
13734;BME280;43298;52.560;13.508;2022-08-30T04:43:09;100956.97;;;13.77;100.00
13734;BME280;43298;52.560;13.508;2022-08-30T04:45:37;100952.19;;;14.02;100.00
13734;BME280;43298;52.560;13.508;2022-08-30T04:48:05;100943.41;;;14.20;100.00
13734;BME280;43298;52.560;13.508;2022-08-30T04:50:31;100940.53;;;14.41;100.00
13734;BME280;43298;52.560;13.508;2022-08-30T04:52:57;100938.19;;;14.52;100.00
13734;BME280;43298;52.560;13.508;2022-08-30T04:55:23;100942.03;;;14.61;100.00
13734;BME280;43298;52.560;13.508;2022-08-30T04:57:51;100942.56;;;14.67;100.00
13734;BME280;43298;52.560;13.508;2022-08-30T05:00:18;100934.41;;;14.73;100.00
13734;BME280;43298;52.560;13.508;2022-08-30T05:02:45;100939.09;;;14.82;100.00
13734;BME280;43298;52.560;13.508;2022-08-30T05:05:12;100933.53;;;14.88;100.00
13734;BME280;43298;52.560;13.508;2022-08-30T05:07:56;100936.50;;;14.98;100.00
13734;BME280;43298;52.560;13.508;2022-08-30T05:10:23;100937.13;;;15.01;100.00
13734;BME280;43298;52.560;13.508;2022-08-30T05:12:49;100938.47;;;15.08;100.00
13734;BME280;43298;52.560;13.508;2022-08-30T05:15:15;100939.97;;;15.13;100.00
13734;BME280;43298;52.560;13.508;2022-08-30T05:17:41;100942.22;;;15.19;100.00
13734;BME280;43298;52.560;13.508;2022-08-30T05:20:09;100946.09;;;15.27;100.00
13734;BME280;43298;52.560;13.508;2022-08-30T05:22:37;100944.97;;;15.31;100.00
13734;BME280;43298;52.560;13.508;2022-08-30T05:25:05;100945.13;;;15.44;100.00
13734;BME280;43298;52.560;13.508;2022-08-30T05:27:32;100950.56;;;15.55;100.00
13734;BME280;43298;52.560;13.508;2022-08-30T05:29:58;100956.84;;;15.66;100.00
13734;BME280;43298;52.560;13.508;2022-08-30T05:32:23;100953.53;;;15.63;100.00
13734;BME280;43298;52.560;13.508;2022-08-30T05:34:49;100960.66;;;15.75;100.00
13734;BME280;43298;52.560;13.508;2022-08-30T05:37:15;100956.84;;;15.80;100.00
13734;BME280;43298;52.560;13.508;2022-08-30T05:39:41;100956.56;;;15.85;100.00
13734;BME280;43298;52.560;13.508;2022-08-30T05:42:07;100960.09;;;15.84;100.00
13734;BME280;43298;52.560;13.508;2022-08-30T05:44:33;100960.69;;;16.03;100.00
13734;BME280;43298;52.560;13.508;2022-08-30T05:46:58;100962.91;;;16.09;100.00
13734;BME280;43298;52.560;13.508;2022-08-30T05:49:24;100963.50;;;16.14;100.00
13734;BME280;43298;52.560;13.508;2022-08-30T05:51:50;100958.47;;;16.25;100.00
13734;BME280;43298;52.560;13.508;2022-08-30T05:54:16;100958.63;;;16.36;100.00
13734;BME280;43298;52.560;13.508;2022-08-30T05:56:44;100965.34;;;16.54;100.00
13734;BME280;43298;52.560;13.508;2022-08-30T05:59:11;100959.19;;;16.55;100.00
13734;BME280;43298;52.560;13.508;2022-08-30T06:01:44;100963.47;;;16.56;100.00
13734;BME280;43298;52.560;13.508;2022-08-30T06:04:11;100963.97;;;16.48;100.00
13734;BME280;43298;52.560;13.508;2022-08-30T06:06:40;100963.53;;;16.68;100.00
13734;BME280;43298;52.560;13.508;2022-08-30T06:09:08;100967.66;;;16.72;100.00
13734;BME280;43298;52.560;13.508;2022-08-30T06:11:35;100973.88;;;16.70;100.00
13734;BME280;43298;52.560;13.508;2022-08-30T06:14:01;100957.28;;;16.85;100.00
13734;BME280;43298;52.560;13.508;2022-08-30T06:16:28;100953.31;;;16.92;100.00
13734;BME280;43298;52.560;13.508;2022-08-30T06:18:56;100961.94;;;17.06;100.00
13734;BME280;43298;52.560;13.508;2022-08-30T06:21:26;100961.97;;;17.19;100.00
13734;BME280;43298;52.560;13.508;2022-08-30T06:23:54;100963.03;;;17.16;100.00
13734;BME280;43298;52.560;13.508;2022-08-30T06:26:21;100961.34;;;17.15;100.00
13734;BME280;43298;52.560;13.508;2022-08-30T06:28:48;100965.16;;;17.24;100.00
13734;BME280;43298;52.560;13.508;2022-08-30T06:31:16;100966.34;;;17.18;100.00
13734;BME280;43298;52.560;13.508;2022-08-30T06:33:43;100972.53;;;17.17;100.00
13734;BME280;43298;52.560;13.508;2022-08-30T06:36:13;100970.16;;;17.27;100.00
13734;BME280;43298;52.560;13.508;2022-08-30T06:38:39;100961.88;;;17.47;100.00
13734;BME280;43298;52.560;13.508;2022-08-30T06:41:12;100968.28;;;17.55;100.00
13734;BME280;43298;52.560;13.508;2022-08-30T06:43:38;100992.00;;;17.52;100.00
13734;BME280;43298;52.560;13.508;2022-08-30T06:46:08;100986.34;;;17.46;100.00
13734;BME280;43298;52.560;13.508;2022-08-30T06:48:35;101002.78;;;17.34;100.00
13734;BME280;43298;52.560;13.508;2022-08-30T06:51:00;100992.88;;;17.53;100.00
13734;BME280;43298;52.560;13.508;2022-08-30T06:53:27;100987.84;;;17.62;100.00
13734;BME280;43298;52.560;13.508;2022-08-30T06:56:08;101002.91;;;17.59;100.00
13734;BME280;43298;52.560;13.508;2022-08-30T06:58:38;101006.47;;;17.58;100.00
13734;BME280;43298;52.560;13.508;2022-08-30T07:01:05;101008.81;;;17.75;100.00
13734;BME280;43298;52.560;13.508;2022-08-30T07:03:33;101013.00;;;17.90;100.00
13734;BME280;43298;52.560;13.508;2022-08-30T07:05:59;101019.59;;;17.83;100.00
13734;BME280;43298;52.560;13.508;2022-08-30T07:08:25;101018.22;;;17.90;100.00
13734;BME280;43298;52.560;13.508;2022-08-30T07:10:52;101023.47;;;17.90;100.00
13734;BME280;43298;52.560;13.508;2022-08-30T07:13:20;101030.81;;;17.85;100.00
13734;BME280;43298;52.560;13.508;2022-08-30T07:15:46;101027.22;;;17.86;100.00
13734;BME280;43298;52.560;13.508;2022-08-30T07:18:13;101022.22;;;18.08;100.00
13734;BME280;43298;52.560;13.508;2022-08-30T07:20:58;101030.72;;;17.99;100.00
13734;BME280;43298;52.560;13.508;2022-08-30T07:23:31;101040.63;;;17.94;100.00
13734;BME280;43298;52.560;13.508;2022-08-30T07:25:57;101046.63;;;17.96;100.00
13734;BME280;43298;52.560;13.508;2022-08-30T07:28:22;101041.91;;;18.26;100.00
13734;BME280;43298;52.560;13.508;2022-08-30T07:30:48;101047.59;;;18.45;100.00
13734;BME280;43298;52.560;13.508;2022-08-30T07:33:14;101053.06;;;18.42;100.00
13734;BME280;43298;52.560;13.508;2022-08-30T07:35:39;101055.09;;;18.25;100.00
13734;BME280;43298;52.560;13.508;2022-08-30T07:38:05;101064.13;;;18.58;100.00
13734;BME280;43298;52.560;13.508;2022-08-30T07:40:31;101070.13;;;18.35;100.00
13734;BME280;43298;52.560;13.508;2022-08-30T07:42:57;101071.28;;;18.56;100.00
13734;BME280;43298;52.560;13.508;2022-08-30T07:45:26;101079.13;;;18.56;100.00
13734;BME280;43298;52.560;13.508;2022-08-30T07:47:52;101074.16;;;18.89;100.00
13734;BME280;43298;52.560;13.508;2022-08-30T07:50:18;101091.13;;;18.96;100.00
13734;BME280;43298;52.560;13.508;2022-08-30T07:52:43;101097.25;;;18.72;100.00
13734;BME280;43298;52.560;13.508;2022-08-30T07:55:09;101110.34;;;18.72;100.00
13734;BME280;43298;52.560;13.508;2022-08-30T07:57:35;101113.59;;;18.75;100.00
13734;BME280;43298;52.560;13.508;2022-08-30T08:00:01;101117.34;;;18.84;100.00
13734;BME280;43298;52.560;13.508;2022-08-30T08:02:28;101130.38;;;18.73;100.00
13734;BME280;43298;52.560;13.508;2022-08-30T08:04:54;101133.81;;;18.73;100.00
13734;BME280;43298;52.560;13.508;2022-08-30T08:07:20;101138.13;;;18.74;100.00
13734;BME280;43298;52.560;13.508;2022-08-30T08:09:45;101150.91;;;19.04;100.00
13734;BME280;43298;52.560;13.508;2022-08-30T08:12:11;101155.06;;;19.31;100.00
13734;BME280;43298;52.560;13.508;2022-08-30T08:14:37;101165.97;;;19.13;100.00
13734;BME280;43298;52.560;13.508;2022-08-30T08:17:03;101169.53;;;19.37;100.00
13734;BME280;43298;52.560;13.508;2022-08-30T08:19:29;101172.78;;;19.28;100.00
13734;BME280;43298;52.560;13.508;2022-08-30T08:21:55;101174.34;;;19.30;100.00
13734;BME280;43298;52.560;13.508;2022-08-30T08:24:26;101166.34;;;19.44;100.00
13734;BME280;43298;52.560;13.508;2022-08-30T08:26:52;101166.19;;;19.58;100.00
13734;BME280;43298;52.560;13.508;2022-08-30T08:29:19;101179.56;;;20.02;100.00
13734;BME280;43298;52.560;13.508;2022-08-30T08:31:45;101189.00;;;20.05;100.00
13734;BME280;43298;52.560;13.508;2022-08-30T08:34:12;101196.72;;;19.95;100.00
13734;BME280;43298;52.560;13.508;2022-08-30T08:36:38;101203.75;;;19.95;100.00
13734;BME280;43298;52.560;13.508;2022-08-30T08:39:07;101214.53;;;20.61;100.00
13734;BME280;43298;52.560;13.508;2022-08-30T08:47:21;101246.69;;;20.64;100.00
13734;BME280;43298;52.560;13.508;2022-08-30T08:49:52;101247.97;;;20.24;100.00
13734;BME280;43298;52.560;13.508;2022-08-30T08:53:16;101243.50;;;20.37;100.00
13734;BME280;43298;52.560;13.508;2022-08-30T08:55:36;101249.41;;;20.28;100.00
13734;BME280;43298;52.560;13.508;2022-08-30T08:58:04;101248.44;;;20.29;100.00
13734;BME280;43298;52.560;13.508;2022-08-30T09:00:31;101263.88;;;20.34;100.00
13734;BME280;43298;52.560;13.508;2022-08-30T09:03:01;101271.09;;;20.43;100.00
13734;BME280;43298;52.560;13.508;2022-08-30T09:05:35;101277.31;;;20.77;100.00
13734;BME280;43298;52.560;13.508;2022-08-30T09:08:06;101289.75;;;20.86;100.00
13734;BME280;43298;52.560;13.508;2022-08-30T09:10:33;101296.47;;;20.31;100.00
13734;BME280;43298;52.560;13.508;2022-08-30T09:13:00;101299.38;;;20.39;100.00
13734;BME280;43298;52.560;13.508;2022-08-30T09:15:32;101308.53;;;20.10;100.00
13734;BME280;43298;52.560;13.508;2022-08-30T09:18:05;101308.09;;;20.16;100.00
13734;BME280;43298;52.560;13.508;2022-08-30T09:20:40;101305.41;;;20.52;100.00
13734;BME280;43298;52.560;13.508;2022-08-30T09:23:25;101299.03;;;20.44;100.00
13734;BME280;43298;52.560;13.508;2022-08-30T09:26:06;101295.53;;;20.32;100.00
13734;BME280;43298;52.560;13.508;2022-08-30T09:28:47;101303.34;;;20.45;100.00
13734;BME280;43298;52.560;13.508;2022-08-30T09:31:51;101312.13;;;20.56;100.00
13734;BME280;43298;52.560;13.508;2022-08-30T09:34:21;101323.47;;;20.33;100.00
13734;BME280;43298;52.560;13.508;2022-08-30T09:36:52;101321.19;;;20.29;100.00
13734;BME280;43298;52.560;13.508;2022-08-30T09:39:33;101311.81;;;20.37;100.00
13734;BME280;43298;52.560;13.508;2022-08-30T09:42:23;101312.34;;;20.30;100.00
13734;BME280;43298;52.560;13.508;2022-08-30T09:44:52;101322.06;;;20.40;100.00
13734;BME280;43298;52.560;13.508;2022-08-30T09:47:28;101317.00;;;20.50;100.00
13734;BME280;43298;52.560;13.508;2022-08-30T09:50:17;101322.59;;;20.45;100.00
13734;BME280;43298;52.560;13.508;2022-08-30T09:52:50;101335.84;;;20.44;100.00
13734;BME280;43298;52.560;13.508;2022-08-30T10:01:14;101325.03;;;20.59;100.00
13734;BME280;43298;52.560;13.508;2022-08-30T10:04:11;101336.00;;;20.88;100.00
13734;BME280;43298;52.560;13.508;2022-08-30T10:06:59;101333.22;;;20.44;100.00
13734;BME280;43298;52.560;13.508;2022-08-30T10:09:53;101331.13;;;20.36;100.00
13734;BME280;43298;52.560;13.508;2022-08-30T10:15:37;101326.88;;;20.46;100.00
13734;BME280;43298;52.560;13.508;2022-08-30T10:23:44;101326.44;;;20.52;100.00
13734;BME280;43298;52.560;13.508;2022-08-30T10:26:49;101333.38;;;20.88;100.00
13734;BME280;43298;52.560;13.508;2022-08-30T10:29:44;101344.59;;;20.79;100.00
13734;BME280;43298;52.560;13.508;2022-08-30T10:32:28;101341.22;;;21.01;100.00
13734;BME280;43298;52.560;13.508;2022-08-30T10:35:36;101356.22;;;21.11;100.00
13734;BME280;43298;52.560;13.508;2022-08-30T10:38:15;101358.88;;;21.22;100.00
13734;BME280;43298;52.560;13.508;2022-08-30T10:40:48;101368.69;;;21.31;100.00
13734;BME280;43298;52.560;13.508;2022-08-30T10:44:05;101379.63;;;21.60;100.00
13734;BME280;43298;52.560;13.508;2022-08-30T10:49:16;101387.34;;;21.28;100.00
13734;BME280;43298;52.560;13.508;2022-08-30T10:54:52;101383.22;;;21.48;100.00
13734;BME280;43298;52.560;13.508;2022-08-30T10:57:19;101401.75;;;21.57;100.00
13734;BME280;43298;52.560;13.508;2022-08-30T11:00:00;101403.84;;;22.09;100.00
13734;BME280;43298;52.560;13.508;2022-08-30T11:05:57;101426.59;;;21.99;100.00
13734;BME280;43298;52.560;13.508;2022-08-30T11:11:39;101410.78;;;22.10;100.00
13734;BME280;43298;52.560;13.508;2022-08-30T11:14:10;101422.50;;;22.39;100.00
13734;BME280;43298;52.560;13.508;2022-08-30T11:16:42;101407.91;;;22.13;100.00
13734;BME280;43298;52.560;13.508;2022-08-30T11:21:47;101421.56;;;21.96;100.00
13734;BME280;43298;52.560;13.508;2022-08-30T11:24:20;101414.81;;;21.59;100.00
13734;BME280;43298;52.560;13.508;2022-08-30T11:29:43;101413.91;;;22.04;100.00
13734;BME280;43298;52.560;13.508;2022-08-30T11:42:24;101426.53;;;22.65;100.00
13734;BME280;43298;52.560;13.508;2022-08-30T11:44:51;101437.38;;;22.07;100.00
13734;BME280;43298;52.560;13.508;2022-08-30T11:47:43;101445.38;;;22.71;100.00
13734;BME280;43298;52.560;13.508;2022-08-30T11:50:28;101445.63;;;22.57;100.00
13734;BME280;43298;52.560;13.508;2022-08-30T12:02:00;101455.22;;;22.36;100.00
13734;BME280;43298;52.560;13.508;2022-08-30T12:04:47;101461.19;;;22.38;100.00
13734;BME280;43298;52.560;13.508;2022-08-30T12:07:56;101459.63;;;22.47;100.00
13734;BME280;43298;52.560;13.508;2022-08-30T12:10:51;101461.19;;;22.71;100.00
13734;BME280;43298;52.560;13.508;2022-08-30T12:16:21;101470.34;;;22.56;100.00
13734;BME280;43298;52.560;13.508;2022-08-30T12:18:55;101469.28;;;23.33;100.00
13734;BME280;43298;52.560;13.508;2022-08-30T12:21:35;101472.25;;;23.08;100.00
13734;BME280;43298;52.560;13.508;2022-08-30T12:26:52;101477.44;;;23.30;100.00
13734;BME280;43298;52.560;13.508;2022-08-30T12:29:25;101487.38;;;23.79;100.00
13734;BME280;43298;52.560;13.508;2022-08-30T12:32:15;101495.63;;;24.06;100.00
13734;BME280;43298;52.560;13.508;2022-08-30T12:34:57;101496.25;;;23.57;100.00
13734;BME280;43298;52.560;13.508;2022-08-30T12:37:26;101498.34;;;23.22;100.00
13734;BME280;43298;52.560;13.508;2022-08-30T12:42:41;101487.13;;;23.41;100.00
13734;BME280;43298;52.560;13.508;2022-08-30T12:45:17;101478.25;;;22.99;100.00
13734;BME280;43298;52.560;13.508;2022-08-30T12:47:58;101476.78;;;22.52;100.00
13734;BME280;43298;52.560;13.508;2022-08-30T12:50:36;101466.19;;;23.17;100.00
13734;BME280;43298;52.560;13.508;2022-08-30T12:53:10;101469.34;;;23.43;100.00
13734;BME280;43298;52.560;13.508;2022-08-30T12:56:03;101475.19;;;23.14;100.00
13734;BME280;43298;52.560;13.508;2022-08-30T12:58:47;101472.69;;;23.13;100.00
13734;BME280;43298;52.560;13.508;2022-08-30T13:01:26;101470.31;;;23.62;100.00
13734;BME280;43298;52.560;13.508;2022-08-30T13:04:24;101472.31;;;23.17;100.00
13734;BME280;43298;52.560;13.508;2022-08-30T13:06:58;101473.53;;;23.45;100.00
13734;BME280;43298;52.560;13.508;2022-08-30T13:09:41;101471.09;;;23.53;100.00
13734;BME280;43298;52.560;13.508;2022-08-30T13:12:20;101482.75;;;23.19;100.00
13734;BME280;43298;52.560;13.508;2022-08-30T13:14:46;101472.19;;;23.30;100.00
13734;BME280;43298;52.560;13.508;2022-08-30T13:17:27;101464.91;;;23.11;100.00
13734;BME280;43298;52.560;13.508;2022-08-30T13:22:40;101430.56;;;22.91;100.00
13734;BME280;43298;52.560;13.508;2022-08-30T13:25:09;101418.78;;;22.95;100.00
13734;BME280;43298;52.560;13.508;2022-08-30T13:27:38;101414.56;;;23.03;100.00
13734;BME280;43298;52.560;13.508;2022-08-30T13:30:10;101414.97;;;22.56;100.00
13734;BME280;43298;52.560;13.508;2022-08-30T13:32:36;101413.75;;;23.23;100.00
13734;BME280;43298;52.560;13.508;2022-08-30T13:35:06;101410.63;;;22.98;100.00
13734;BME280;43298;52.560;13.508;2022-08-30T13:37:33;101414.59;;;23.24;100.00
13734;BME280;43298;52.560;13.508;2022-08-30T13:39:59;101417.75;;;23.07;100.00
13734;BME280;43298;52.560;13.508;2022-08-30T13:42:25;101403.81;;;23.16;100.00
13734;BME280;43298;52.560;13.508;2022-08-30T13:44:50;101409.06;;;23.27;100.00
13734;BME280;43298;52.560;13.508;2022-08-30T13:47:18;101418.06;;;22.93;100.00
13734;BME280;43298;52.560;13.508;2022-08-30T13:49:44;101417.56;;;22.99;100.00
13734;BME280;43298;52.560;13.508;2022-08-30T13:52:21;101423.13;;;23.48;100.00
13734;BME280;43298;52.560;13.508;2022-08-30T13:54:51;101424.91;;;22.53;100.00
13734;BME280;43298;52.560;13.508;2022-08-30T13:57:23;101414.94;;;22.67;100.00